createdAt,value
2023-02-18T00:00:23.997Z,8.90
2023-02-18T00:02:52.600Z,9.34
2023-02-18T00:05:19.406Z,9.46
2023-02-18T00:07:45.932Z,10.71
2023-02-18T00:10:14.942Z,9.95
2023-02-18T00:12:42.002Z,9.60
2023-02-18T00:15:09.129Z,9.13
2023-02-18T00:17:35.982Z,9.08
2023-02-18T00:20:04.831Z,8.95
2023-02-18T00:22:31.509Z,8.88
2023-02-18T00:24:58.006Z,8.32
2023-02-18T00:27:24.512Z,8.44
2023-02-18T00:29:51.029Z,8.63
2023-02-18T00:32:17.693Z,9.01
2023-02-18T00:34:44.165Z,8.85
2023-02-18T00:37:10.678Z,8.97
2023-02-18T00:39:37.292Z,8.77
2023-02-18T00:42:03.924Z,8.81
2023-02-18T00:44:30.445Z,9.05
2023-02-18T00:46:56.923Z,8.93
2023-02-18T00:49:23.522Z,9.14
2023-02-18T00:51:50.086Z,9.08
2023-02-18T00:54:16.556Z,8.95
2023-02-18T00:56:43.069Z,9.19
2023-02-18T00:59:09.570Z,8.83
2023-02-18T01:01:36.129Z,8.86
2023-02-18T01:04:02.681Z,9.16
2023-02-18T01:06:29.184Z,9.04
2023-02-18T01:08:55.977Z,8.78
2023-02-18T01:11:22.473Z,8.31
2023-02-18T01:13:49.003Z,8.58
2023-02-18T01:16:15.601Z,8.61
2023-02-18T01:18:42.101Z,8.38
2023-02-18T01:21:10.214Z,8.42
2023-02-18T01:23:39.523Z,8.56
2023-02-18T01:26:07.314Z,8.56
2023-02-18T01:28:34.204Z,8.83
2023-02-18T01:31:07.363Z,8.51
2023-02-18T01:33:33.966Z,8.30
2023-02-18T01:36:00.490Z,8.56
2023-02-18T01:38:27.017Z,8.65
2023-02-18T01:40:54.198Z,8.53
2023-02-18T01:43:20.789Z,8.66
2023-02-18T01:46:02.613Z,8.70
2023-02-18T01:48:32.889Z,8.41
2023-02-18T01:51:07.285Z,8.54
2023-02-18T01:54:03.169Z,8.45
2023-02-18T01:56:55.865Z,8.15
2023-02-18T01:59:38.613Z,8.07
2023-02-18T02:02:10.776Z,8.41
2023-02-18T02:04:37.374Z,8.83
2023-02-18T02:07:04.101Z,8.65
2023-02-18T02:09:33.973Z,8.61
2023-02-18T02:12:09.474Z,8.47
2023-02-18T02:14:54.881Z,8.79
2023-02-18T02:17:41.338Z,8.55
2023-02-18T02:20:30.445Z,8.13
2023-02-18T02:23:18.194Z,8.15
2023-02-18T02:25:56.478Z,8.44
2023-02-18T02:28:27.866Z,8.42
2023-02-18T02:31:05.536Z,8.23
2023-02-18T02:33:59.365Z,8.22
2023-02-18T02:36:44.721Z,8.12
2023-02-18T02:39:25.894Z,8.04
2023-02-18T02:42:00.194Z,8.14
2023-02-18T02:44:41.099Z,7.90
2023-02-18T02:47:26.204Z,7.90
2023-02-18T02:50:06.383Z,7.95
2023-02-18T02:52:41.169Z,8.02
2023-02-18T02:55:12.330Z,8.26
2023-02-18T02:57:46.437Z,7.99
2023-02-18T03:00:16.913Z,7.87
2023-02-18T03:03:14.741Z,7.18
2023-02-18T03:06:13.480Z,7.20
2023-02-18T03:09:16.678Z,7.37
2023-02-18T03:11:58.430Z,6.81
2023-02-18T03:14:32.743Z,7.03
2023-02-18T03:17:32.653Z,6.88
2023-02-18T03:20:08.140Z,6.54
2023-02-18T03:22:41.634Z,6.60
2023-02-18T03:25:10.328Z,6.35
2023-02-18T03:27:52.885Z,6.48
2023-02-18T03:30:34.917Z,6.34
2023-02-18T03:33:09.299Z,6.55
2023-02-18T03:35:38.404Z,6.88
2023-02-18T03:38:16.550Z,6.56
2023-02-18T03:40:43.261Z,6.21
2023-02-18T03:43:09.901Z,6.06
2023-02-18T03:45:36.634Z,6.25
2023-02-18T03:48:03.371Z,6.23
2023-02-18T03:50:29.860Z,6.38
2023-02-18T03:52:56.427Z,6.50
2023-02-18T03:55:22.916Z,6.62
2023-02-18T03:57:49.516Z,6.99
2023-02-18T04:00:16.199Z,6.66
2023-02-18T04:02:42.822Z,6.68
2023-02-18T04:05:10.591Z,6.51
2023-02-18T04:07:37.115Z,6.48
2023-02-18T04:10:05.886Z,6.53
2023-02-18T04:12:52.366Z,6.66
2023-02-18T04:15:18.989Z,6.07
2023-02-18T04:17:45.501Z,6.19
2023-02-18T04:20:12.252Z,6.29
2023-02-18T04:22:38.814Z,6.63
2023-02-18T04:25:05.525Z,6.72
2023-02-18T04:27:32.575Z,6.14
2023-02-18T04:29:59.344Z,6.28
2023-02-18T04:32:25.829Z,6.25
2023-02-18T04:34:52.549Z,6.71
2023-02-18T04:37:19.036Z,6.65
2023-02-18T04:39:45.515Z,6.59
2023-02-18T04:42:11.989Z,6.55
2023-02-18T04:44:38.802Z,6.31
2023-02-18T04:47:06.859Z,6.15
2023-02-18T04:49:34.321Z,6.67
2023-02-18T04:52:00.901Z,6.47
2023-02-18T04:54:27.403Z,6.22
2023-02-18T04:56:54.360Z,6.12
2023-02-18T04:59:21.080Z,5.85
2023-02-18T05:01:47.634Z,6.08
2023-02-18T05:04:14.242Z,5.92
2023-02-18T05:06:40.792Z,6.12
2023-02-18T05:09:07.379Z,6.15
2023-02-18T05:11:33.960Z,5.82
2023-02-18T05:14:00.488Z,6.08
2023-02-18T05:16:27.085Z,6.14
2023-02-18T05:18:53.705Z,5.91
2023-02-18T05:21:20.241Z,6.07
2023-02-18T05:23:46.736Z,5.81
2023-02-18T05:26:13.355Z,5.92
2023-02-18T05:28:39.947Z,6.26
2023-02-18T05:31:06.561Z,5.92
2023-02-18T05:33:33.138Z,6.22
2023-02-18T05:35:59.706Z,6.00
2023-02-18T05:38:26.175Z,6.04
2023-02-18T05:40:52.823Z,6.49
2023-02-18T05:43:19.316Z,6.19
2023-02-18T05:45:45.895Z,6.37
2023-02-18T05:48:12.424Z,6.37
2023-02-18T05:50:39.374Z,6.22
2023-02-18T05:53:05.892Z,6.23
2023-02-18T05:55:32.379Z,6.62
2023-02-18T05:57:58.975Z,6.59
2023-02-18T06:00:25.539Z,6.38
2023-02-18T06:02:52.119Z,6.79
2023-02-18T06:05:18.709Z,6.65
2023-02-18T06:07:45.237Z,6.51
2023-02-18T06:10:11.713Z,6.48
2023-02-18T06:12:38.211Z,6.34
2023-02-18T06:15:05.089Z,6.52
2023-02-18T06:17:31.663Z,6.17
2023-02-18T06:19:58.172Z,6.25
2023-02-18T06:22:24.798Z,6.17
2023-02-18T06:24:51.294Z,6.21
2023-02-18T06:27:17.934Z,5.79
2023-02-18T06:29:44.466Z,5.85
2023-02-18T06:32:11.098Z,5.70
2023-02-18T06:34:37.674Z,6.07
2023-02-18T06:37:04.225Z,5.92
2023-02-18T06:39:32.165Z,6.29
2023-02-18T06:41:58.663Z,6.18
2023-02-18T06:44:25.207Z,6.35
2023-02-18T06:46:51.762Z,6.52
2023-02-18T06:49:18.510Z,6.30
2023-02-18T06:51:45.023Z,6.02
2023-02-18T06:54:11.550Z,6.56
2023-02-18T06:56:38.607Z,6.28
2023-02-18T06:59:05.171Z,6.12
2023-02-18T07:01:31.677Z,6.31
2023-02-18T07:03:58.243Z,6.01
2023-02-18T07:06:24.747Z,6.05
2023-02-18T07:08:51.224Z,5.76
2023-02-18T07:11:17.850Z,6.05
2023-02-18T07:13:44.381Z,5.87
2023-02-18T07:16:11.652Z,5.98
2023-02-18T07:18:38.412Z,6.09
2023-02-18T07:21:05.027Z,6.26
2023-02-18T07:23:31.653Z,6.49
2023-02-18T07:26:06.789Z,6.59
2023-02-18T07:28:33.432Z,6.56
2023-02-18T07:31:00.139Z,6.61
2023-02-18T07:33:26.666Z,6.64
2023-02-18T07:35:54.997Z,6.71
2023-02-18T07:38:21.953Z,6.58
2023-02-18T07:40:48.541Z,6.82
2023-02-18T07:43:15.069Z,6.92
2023-02-18T07:45:41.634Z,6.93
2023-02-18T07:48:08.335Z,6.74
2023-02-18T07:50:34.840Z,7.11
2023-02-18T07:53:01.673Z,6.99
2023-02-18T07:55:28.170Z,6.82
2023-02-18T07:57:54.639Z,6.66
2023-02-18T08:00:21.231Z,7.03
2023-02-18T08:02:47.763Z,6.77
2023-02-18T08:05:14.242Z,6.88
2023-02-18T08:07:40.742Z,6.89
2023-02-18T08:10:07.675Z,6.58
2023-02-18T08:12:34.169Z,6.79
2023-02-18T08:15:00.631Z,6.86
2023-02-18T08:17:27.110Z,6.98
2023-02-18T08:19:53.609Z,7.63
2023-02-18T08:22:20.209Z,7.61
2023-02-18T08:24:46.745Z,7.20
2023-02-18T08:27:13.260Z,7.16
2023-02-18T08:29:39.772Z,7.42
2023-02-18T08:32:06.343Z,7.69
2023-02-18T08:34:33.013Z,7.86
2023-02-18T08:37:01.874Z,7.77
2023-02-18T08:39:28.408Z,8.16
2023-02-18T08:41:56.644Z,8.33
2023-02-18T08:44:23.103Z,9.14
2023-02-18T08:46:49.642Z,10.12
2023-02-18T08:49:16.994Z,8.78
2023-02-18T08:51:43.558Z,9.14
2023-02-18T08:54:10.055Z,9.61
2023-02-18T08:56:36.594Z,9.13
2023-02-18T08:59:03.113Z,9.63
2023-02-18T09:01:29.696Z,10.25
2023-02-18T09:04:02.256Z,11.56
2023-02-18T09:06:28.761Z,13.09
2023-02-18T09:08:55.741Z,13.45
2023-02-18T09:11:22.229Z,11.88
2023-02-18T09:13:48.724Z,11.87
2023-02-18T09:16:18.459Z,11.03
2023-02-18T09:18:46.888Z,10.95
2023-02-18T09:21:15.517Z,11.44
2023-02-18T09:23:42.642Z,10.81
2023-02-18T09:26:13.959Z,10.09
2023-02-18T09:28:40.716Z,11.23
2023-02-18T09:31:11.985Z,10.82
2023-02-18T09:33:41.588Z,9.86
2023-02-18T09:36:08.953Z,9.31
2023-02-18T09:38:35.582Z,9.91
2023-02-18T09:41:08.934Z,9.44
2023-02-18T09:43:43.465Z,8.85
2023-02-18T09:46:21.769Z,8.78
2023-02-18T09:48:48.939Z,10.02
2023-02-18T09:51:17.282Z,9.19
2023-02-18T09:53:45.413Z,9.19
2023-02-18T09:56:20.321Z,10.31
2023-02-18T09:58:49.463Z,9.29
2023-02-18T10:01:32.626Z,9.19
2023-02-18T10:04:07.041Z,9.91
2023-02-18T10:06:35.255Z,9.62
2023-02-18T10:09:16.378Z,8.94
2023-02-18T10:11:47.142Z,9.01
2023-02-18T10:14:15.538Z,9.09
2023-02-18T10:16:45.416Z,8.59
2023-02-18T10:19:33.052Z,8.69
2023-02-18T10:22:06.515Z,8.33
2023-02-18T10:24:42.784Z,8.47
2023-02-18T10:27:13.547Z,8.72
2023-02-18T10:29:40.283Z,8.93
2023-02-18T10:32:23.017Z,8.76
2023-02-18T10:35:02.805Z,8.31
2023-02-18T10:37:54.143Z,8.49
2023-02-18T10:40:53.527Z,9.42
2023-02-18T10:43:32.616Z,8.47
2023-02-18T10:46:20.547Z,8.63
2023-02-18T10:49:08.207Z,8.45
2023-02-18T10:51:39.753Z,8.01
2023-02-18T10:54:07.046Z,8.18
2023-02-18T10:56:35.280Z,7.83
2023-02-18T10:59:11.820Z,8.21
2023-02-18T11:01:39.957Z,8.33
2023-02-18T11:04:16.939Z,7.41
2023-02-18T11:06:48.178Z,7.66
2023-02-18T11:09:28.281Z,7.76
2023-02-18T11:12:08.794Z,8.36
2023-02-18T11:14:45.250Z,8.10
2023-02-18T11:17:20.401Z,8.66
2023-02-18T11:19:57.130Z,7.88
2023-02-18T11:22:34.068Z,7.76
2023-02-18T11:25:03.626Z,7.68
2023-02-18T11:27:44.428Z,7.34
2023-02-18T11:30:26.622Z,7.75
2023-02-18T11:32:59.825Z,7.67
2023-02-18T11:35:31.872Z,7.28
2023-02-18T11:38:02.253Z,7.85
2023-02-18T11:40:33.781Z,8.25
2023-02-18T11:43:05.296Z,9.23
2023-02-18T11:45:33.648Z,8.73
2023-02-18T11:48:23.989Z,8.27
2023-02-18T11:50:53.657Z,9.02
2023-02-18T11:53:33.521Z,9.44
2023-02-18T11:56:19.440Z,9.00
2023-02-18T11:58:48.658Z,8.95
2023-02-18T12:01:45.420Z,9.08
2023-02-18T12:04:18.404Z,7.81
2023-02-18T12:06:54.021Z,8.44
2023-02-18T12:09:40.304Z,7.73
2023-02-18T12:12:18.755Z,8.42
2023-02-18T12:14:45.444Z,7.01
2023-02-18T12:17:40.067Z,7.12
2023-02-18T12:20:14.707Z,7.76
2023-02-18T12:22:45.424Z,7.50
2023-02-18T12:25:31.598Z,7.95
2023-02-18T12:28:19.677Z,8.24
2023-02-18T12:30:52.148Z,7.63
2023-02-18T12:33:18.533Z,7.36
2023-02-18T12:36:12.308Z,7.75
2023-02-18T12:38:57.510Z,7.99
2023-02-18T12:41:42.433Z,8.36
2023-02-18T12:44:31.289Z,7.65
2023-02-18T12:47:38.676Z,7.64
2023-02-18T12:50:32.957Z,7.13
2023-02-18T12:53:08.272Z,7.20
2023-02-18T12:55:55.348Z,8.11
2023-02-18T12:58:30.527Z,6.36
2023-02-18T13:01:06.137Z,6.50
2023-02-18T13:03:49.422Z,7.12
2023-02-18T13:06:48.451Z,7.17
2023-02-18T13:09:29.351Z,8.07
2023-02-18T13:12:21.652Z,8.23
2023-02-18T13:14:53.881Z,8.24
2023-02-18T13:17:22.174Z,7.50
2023-02-18T13:19:59.377Z,7.47
2023-02-18T13:22:29.899Z,6.60
2023-02-18T13:24:59.016Z,6.22
2023-02-18T13:27:53.904Z,7.06
2023-02-18T13:30:48.197Z,7.15
2023-02-18T13:33:29.629Z,7.05
2023-02-18T13:36:09.893Z,6.61
2023-02-18T13:39:06.289Z,6.49
2023-02-18T13:41:38.629Z,8.05
2023-02-18T13:44:23.344Z,6.89
2023-02-18T13:46:53.528Z,6.96
2023-02-18T13:49:36.767Z,8.31
2023-02-18T13:52:05.253Z,8.75
2023-02-18T13:54:41.996Z,9.04
2023-02-18T13:57:26.796Z,8.92
2023-02-18T14:00:05.397Z,8.70
2023-02-18T14:02:35.547Z,9.17
2023-02-18T14:05:07.965Z,9.25
2023-02-18T14:07:34.399Z,9.51
2023-02-18T14:10:03.490Z,8.63
2023-02-18T14:12:40.453Z,9.88
2023-02-18T14:15:18.830Z,8.87
2023-02-18T14:17:49.096Z,8.36
2023-02-18T14:20:21.643Z,6.91
2023-02-18T14:22:50.666Z,6.28
2023-02-18T14:25:20.069Z,6.56
2023-02-18T14:27:50.884Z,6.58
2023-02-18T14:30:38.835Z,6.88
2023-02-18T14:33:06.071Z,6.32
2023-02-18T14:35:46.579Z,4.93
2023-02-18T14:38:28.034Z,6.38
2023-02-18T14:41:10.101Z,6.70
2023-02-18T14:43:45.767Z,7.87
2023-02-18T14:46:25.318Z,8.94
2023-02-18T14:49:01.990Z,6.36
2023-02-18T14:51:32.392Z,6.64
2023-02-18T14:54:06.462Z,6.38
2023-02-18T14:56:39.258Z,6.31
2023-02-18T14:59:07.134Z,6.23
2023-02-18T15:01:35.419Z,6.15
2023-02-18T15:04:03.349Z,6.71
2023-02-18T15:06:38.324Z,7.10
2023-02-18T15:09:15.243Z,5.44
2023-02-18T15:11:51.908Z,6.22
2023-02-18T15:14:24.157Z,8.07
2023-02-18T15:16:52.044Z,6.58
2023-02-18T15:19:26.726Z,6.69
2023-02-18T15:21:56.592Z,6.74
2023-02-18T15:24:33.649Z,6.65
2023-02-18T15:27:05.416Z,5.09
2023-02-18T15:29:36.255Z,4.79
2023-02-18T15:32:16.450Z,5.68
2023-02-18T15:34:44.376Z,6.01
2023-02-18T15:37:14.198Z,6.00
2023-02-18T15:39:42.672Z,6.70
2023-02-18T15:42:19.149Z,6.71
2023-02-18T15:44:53.443Z,6.23
2023-02-18T15:47:21.505Z,6.35
2023-02-18T15:49:54.311Z,6.71
2023-02-18T15:52:30.763Z,6.79
2023-02-18T15:55:12.969Z,6.83
2023-02-18T15:57:40.200Z,6.95
2023-02-18T16:00:18.893Z,6.48
2023-02-18T16:03:02.929Z,6.34
2023-02-18T16:05:29.701Z,7.09
2023-02-18T16:08:13.424Z,7.87
2023-02-18T16:10:47.163Z,6.67
2023-02-18T16:13:17.528Z,6.71
2023-02-18T16:15:49.057Z,6.97
2023-02-18T16:18:31.042Z,6.56
2023-02-18T16:21:02.809Z,6.95
2023-02-18T16:23:42.657Z,6.78
2023-02-18T16:26:27.582Z,6.35
2023-02-18T16:28:55.251Z,6.32
2023-02-18T16:31:22.605Z,6.55
2023-02-18T16:33:49.611Z,6.49
2023-02-18T16:36:16.853Z,6.13
2023-02-18T16:38:45.287Z,6.28
2023-02-18T16:41:14.268Z,6.79
2023-02-18T16:43:41.130Z,6.76
2023-02-18T16:46:21.005Z,7.79
2023-02-18T16:48:52.150Z,7.27
2023-02-18T16:51:29.720Z,8.54
2023-02-18T16:53:59.297Z,7.47
2023-02-18T16:56:30.625Z,6.53
2023-02-18T16:58:57.099Z,6.48
2023-02-18T17:01:28.360Z,6.64
2023-02-18T17:03:55.226Z,6.79
2023-02-18T17:06:21.946Z,7.20
2023-02-18T17:08:48.544Z,7.71
2023-02-18T17:11:22.568Z,8.29
2023-02-18T17:13:50.296Z,10.15
2023-02-18T17:16:17.506Z,10.52
2023-02-18T17:18:45.035Z,10.11
2023-02-18T17:21:14.343Z,10.26
2023-02-18T17:23:41.510Z,9.80
2023-02-18T17:26:25.443Z,9.95
2023-02-18T17:28:54.334Z,7.91
2023-02-18T17:31:33.685Z,7.57
2023-02-18T17:34:05.904Z,7.83
2023-02-18T17:36:32.578Z,7.48
2023-02-18T17:39:01.562Z,7.13
2023-02-18T17:41:28.989Z,6.97
2023-02-18T17:43:55.449Z,7.76
2023-02-18T17:46:22.030Z,7.55
2023-02-18T17:48:48.585Z,8.72
2023-02-18T17:51:26.855Z,8.48
2023-02-18T17:53:53.407Z,9.38
2023-02-18T17:56:20.339Z,8.71
2023-02-18T17:58:46.942Z,8.36
2023-02-18T18:01:13.485Z,7.81
2023-02-18T18:03:39.975Z,7.54
2023-02-18T18:06:18.205Z,7.60
2023-02-18T18:08:45.600Z,7.21
2023-02-18T18:11:23.803Z,7.24
2023-02-18T18:13:51.449Z,7.74
2023-02-18T18:16:20.200Z,7.72
2023-02-18T18:18:46.877Z,7.92
2023-02-18T18:21:32.463Z,7.51
2023-02-18T18:23:59.032Z,8.13
2023-02-18T18:26:26.077Z,7.90
2023-02-18T18:28:52.727Z,8.39
2023-02-18T18:31:21.063Z,8.61
2023-02-18T18:33:49.855Z,11.54
2023-02-18T18:36:17.333Z,11.56
2023-02-18T18:38:43.823Z,10.85
2023-02-18T18:41:16.527Z,10.21
2023-02-18T18:43:43.382Z,9.21
2023-02-18T18:46:10.221Z,7.83
2023-02-18T18:48:36.914Z,7.43
2023-02-18T18:51:03.983Z,7.29
2023-02-18T18:53:35.260Z,7.45
2023-02-18T18:56:05.425Z,7.16
2023-02-18T18:58:32.410Z,7.14
2023-02-18T19:01:02.004Z,7.36
2023-02-18T19:03:30.263Z,7.09
2023-02-18T19:05:57.476Z,7.32
2023-02-18T19:08:24.180Z,7.48
2023-02-18T19:10:54.255Z,7.95
2023-02-18T19:13:26.625Z,7.67
2023-02-18T19:16:04.326Z,8.52
2023-02-18T19:18:30.969Z,8.82
2023-02-18T19:20:57.643Z,9.22
2023-02-18T19:23:24.220Z,9.28
2023-02-18T19:25:50.981Z,8.20
2023-02-18T19:28:19.406Z,8.23
2023-02-18T19:30:47.061Z,8.49
2023-02-18T19:33:15.307Z,8.78
2023-02-18T19:35:43.202Z,8.09
2023-02-18T19:38:13.642Z,8.63
2023-02-18T19:40:41.130Z,8.85
2023-02-18T19:43:07.761Z,8.42
2023-02-18T19:45:35.159Z,9.40
2023-02-18T19:48:01.900Z,9.61
2023-02-18T19:50:29.486Z,9.37
2023-02-18T19:52:57.464Z,9.63
2023-02-18T19:55:23.992Z,9.54
2023-02-18T19:57:51.764Z,11.25
2023-02-18T20:00:21.092Z,11.53
2023-02-18T20:02:48.408Z,13.15
2023-02-18T20:05:15.124Z,13.76
2023-02-18T20:07:42.452Z,9.27
2023-02-18T20:10:13.831Z,9.88
2023-02-18T20:12:40.419Z,10.93
2023-02-18T20:15:07.246Z,10.12
2023-02-18T20:17:33.874Z,9.76
2023-02-18T20:20:00.360Z,9.69
2023-02-18T20:22:26.866Z,9.14
2023-02-18T20:24:53.326Z,9.42
2023-02-18T20:27:19.907Z,10.28
2023-02-18T20:29:46.439Z,9.41
2023-02-18T20:32:12.968Z,10.49
2023-02-18T20:34:39.480Z,11.07
2023-02-18T20:37:05.952Z,9.92
2023-02-18T20:39:32.461Z,9.86
2023-02-18T20:42:02.911Z,9.52
2023-02-18T20:44:31.910Z,9.36
2023-02-18T20:47:01.456Z,9.34
2023-02-18T20:49:27.958Z,8.84
2023-02-18T20:51:54.479Z,8.81
2023-02-18T20:54:20.955Z,9.58
2023-02-18T20:56:49.927Z,9.53
2023-02-18T20:59:19.277Z,9.52
2023-02-18T21:01:47.748Z,9.38
2023-02-18T21:04:17.311Z,9.73
2023-02-18T21:06:44.441Z,9.48
2023-02-18T21:09:11.644Z,9.86
2023-02-18T21:11:38.375Z,9.14
2023-02-18T21:14:04.852Z,9.02
2023-02-18T21:16:31.722Z,9.21
2023-02-18T21:18:59.110Z,9.37
2023-02-18T21:21:26.532Z,9.49
2023-02-18T21:23:53.330Z,9.57
2023-02-18T21:26:22.810Z,9.44
2023-02-18T21:28:52.752Z,9.04
2023-02-18T21:31:31.084Z,9.14
2023-02-18T21:33:57.966Z,9.57
2023-02-18T21:36:26.180Z,9.64
2023-02-18T21:38:54.694Z,10.60
2023-02-18T21:41:21.583Z,10.74
2023-02-18T21:43:48.659Z,11.04
2023-02-18T21:46:21.932Z,9.79
2023-02-18T21:48:48.980Z,9.57
2023-02-18T21:51:15.623Z,9.68
2023-02-18T21:53:42.097Z,9.52
2023-02-18T21:56:10.861Z,8.97
2023-02-18T21:58:37.345Z,9.40
2023-02-18T22:01:03.935Z,9.74
2023-02-18T22:03:32.296Z,9.57
2023-02-18T22:05:58.822Z,9.18
2023-02-18T22:08:25.327Z,8.90
2023-02-18T22:10:51.783Z,9.07
2023-02-18T22:13:18.275Z,9.63
2023-02-18T22:15:44.729Z,9.28
2023-02-18T22:18:11.229Z,9.43
2023-02-18T22:20:38.638Z,9.47
2023-02-18T22:23:05.079Z,9.14
2023-02-18T22:25:31.556Z,9.31
2023-02-18T22:27:58.068Z,9.47
2023-02-18T22:30:24.658Z,9.58
2023-02-18T22:32:51.201Z,9.17
2023-02-18T22:35:17.748Z,9.47
2023-02-18T22:37:44.200Z,9.75
2023-02-18T22:40:11.035Z,9.79
2023-02-18T22:42:37.594Z,9.25
2023-02-18T22:45:04.300Z,9.24
2023-02-18T22:47:30.818Z,9.14
2023-02-18T22:49:57.488Z,8.72
2023-02-18T22:52:24.021Z,8.32
2023-02-18T22:54:50.463Z,9.17
2023-02-18T22:57:16.986Z,9.59
2023-02-18T22:59:43.429Z,8.69
2023-02-18T23:02:10.059Z,8.48
2023-02-18T23:04:39.096Z,8.81
2023-02-18T23:07:05.668Z,8.76
2023-02-18T23:09:32.332Z,9.03
2023-02-18T23:11:58.990Z,9.11
2023-02-18T23:14:26.769Z,9.23
2023-02-18T23:17:03.662Z,8.97
2023-02-18T23:19:32.343Z,8.77
2023-02-18T23:21:58.897Z,9.34
2023-02-18T23:24:25.842Z,9.35
2023-02-18T23:26:52.756Z,9.11
2023-02-18T23:29:20.358Z,8.59
2023-02-18T23:31:46.946Z,8.17
2023-02-18T23:34:15.615Z,8.51
2023-02-18T23:36:43.292Z,8.85
2023-02-18T23:39:11.388Z,9.05
2023-02-18T23:41:37.920Z,8.98
2023-02-18T23:44:06.595Z,8.80
2023-02-18T23:46:33.732Z,8.64
2023-02-18T23:49:01.357Z,8.92
2023-02-18T23:51:27.881Z,8.92
2023-02-18T23:53:54.371Z,8.95
2023-02-18T23:56:26.147Z,8.91
2023-02-18T23:58:57.924Z,8.83
